createdAt,value
2018-07-11T00:00:20.189Z,14.21
2018-07-11T00:01:20.242Z,14.21
2018-07-11T00:02:20.165Z,14.18
2018-07-11T00:03:20.155Z,14.14
2018-07-11T00:04:20.148Z,14.17
2018-07-11T00:05:20.132Z,14.15
2018-07-11T00:06:20.195Z,14.12
2018-07-11T00:07:20.110Z,14.06
2018-07-11T00:08:20.095Z,14.03
2018-07-11T00:09:20.090Z,13.99
2018-07-11T00:10:20.082Z,14.04
2018-07-11T00:11:20.150Z,14.00
2018-07-11T00:12:20.054Z,13.95
2018-07-11T00:13:20.043Z,13.96
2018-07-11T00:14:20.036Z,13.97
2018-07-11T00:15:20.024Z,13.95
2018-07-11T00:16:20.092Z,13.91
2018-07-11T00:17:20.002Z,13.96
2018-07-11T00:18:19.991Z,13.99
2018-07-11T00:19:20.905Z,13.99
2018-07-11T00:20:19.968Z,14.00
2018-07-11T00:21:20.021Z,13.88
2018-07-11T00:22:19.946Z,13.96
2018-07-11T00:23:19.938Z,13.91
2018-07-11T00:24:19.930Z,13.91
2018-07-11T00:25:19.918Z,13.88
2018-07-11T00:26:19.968Z,13.87
2018-07-11T00:27:19.891Z,13.89
2018-07-11T00:28:19.882Z,13.85
2018-07-11T00:29:19.874Z,13.81
2018-07-11T00:30:19.864Z,13.84
2018-07-11T00:31:19.921Z,13.85
2018-07-11T00:32:19.841Z,13.81
2018-07-11T00:33:19.830Z,13.89
2018-07-11T00:34:19.820Z,13.81
2018-07-11T00:35:19.808Z,13.88
2018-07-11T00:36:19.874Z,13.81
2018-07-11T00:37:19.880Z,13.87
2018-07-11T00:38:19.783Z,13.81
2018-07-11T00:39:19.767Z,13.82
2018-07-11T00:40:20.405Z,13.79
2018-07-11T00:41:19.809Z,13.79
2018-07-11T00:42:19.731Z,13.77
2018-07-11T00:43:19.725Z,13.82
2018-07-11T00:44:19.710Z,13.81
2018-07-11T00:45:19.701Z,13.71
2018-07-11T00:46:19.753Z,13.78
2018-07-11T00:47:19.676Z,13.77
2018-07-11T00:48:19.670Z,13.69
2018-07-11T00:49:19.665Z,13.70
2018-07-11T00:50:19.648Z,13.69
2018-07-11T00:51:19.703Z,13.64
2018-07-11T00:52:19.626Z,13.66
2018-07-11T00:53:19.615Z,13.69
2018-07-11T00:54:19.604Z,13.66
2018-07-11T00:55:19.592Z,13.59
2018-07-11T00:56:19.651Z,13.60
2018-07-11T00:57:19.576Z,13.59
2018-07-11T00:58:19.564Z,13.57
2018-07-11T00:59:19.554Z,13.62
2018-07-11T01:00:19.538Z,13.52
2018-07-11T01:01:20.014Z,13.57
2018-07-11T01:02:19.521Z,13.55
2018-07-11T01:03:19.510Z,13.46
2018-07-11T01:04:19.499Z,13.54
2018-07-11T01:05:19.488Z,13.44
2018-07-11T01:06:19.543Z,13.42
2018-07-11T01:07:19.463Z,13.41
2018-07-11T01:08:19.452Z,13.42
2018-07-11T01:09:27.615Z,13.41
2018-07-11T01:10:27.598Z,13.32
2018-07-11T01:11:27.597Z,13.33
2018-07-11T01:12:27.509Z,13.41
2018-07-11T01:13:27.519Z,13.38
2018-07-11T01:14:19.388Z,13.33
2018-07-11T01:15:19.380Z,13.30
2018-07-11T01:16:19.435Z,13.25
2018-07-11T01:17:27.544Z,13.28
2018-07-11T01:18:27.455Z,13.23
2018-07-11T01:19:29.305Z,13.17
2018-07-11T01:20:30.344Z,13.19
2018-07-11T01:21:26.930Z,13.20
2018-07-11T01:22:27.374Z,13.22
2018-07-11T01:23:19.295Z,13.26
2018-07-11T01:24:19.286Z,13.22
2018-07-11T01:25:19.269Z,13.14
2018-07-11T01:26:19.330Z,13.11
2018-07-11T01:27:19.265Z,13.20
2018-07-11T01:28:19.239Z,13.08
2018-07-11T01:29:19.225Z,13.15
2018-07-11T01:30:19.795Z,13.14
2018-07-11T01:31:19.277Z,13.11
2018-07-11T01:32:19.195Z,13.10
2018-07-11T01:33:19.184Z,13.15
2018-07-11T01:34:19.178Z,13.11
2018-07-11T01:35:19.167Z,13.08
2018-07-11T01:36:19.220Z,13.12
2018-07-11T01:37:19.142Z,13.23
2018-07-11T01:38:19.134Z,13.25
2018-07-11T01:39:19.120Z,13.19
2018-07-11T01:40:19.115Z,13.23
2018-07-11T01:41:19.098Z,13.25
2018-07-11T01:42:19.155Z,13.17
2018-07-11T01:43:19.794Z,13.22
2018-07-11T01:44:19.065Z,13.30
2018-07-11T01:45:19.059Z,13.41
2018-07-11T01:46:19.056Z,13.28
2018-07-11T01:47:19.100Z,13.38
2018-07-11T01:48:19.028Z,13.38
2018-07-11T01:49:19.010Z,13.42
2018-07-11T01:50:19.004Z,13.42
2018-07-11T01:51:18.995Z,13.44
2018-07-11T01:52:19.048Z,13.46
2018-07-11T01:53:18.970Z,13.44
2018-07-11T01:54:18.978Z,13.42
2018-07-11T01:55:18.946Z,13.42
2018-07-11T01:56:18.938Z,13.46
2018-07-11T01:57:19.000Z,13.45
2018-07-11T01:58:18.915Z,13.46
2018-07-11T01:59:18.909Z,13.38
2018-07-11T02:00:18.895Z,13.38
2018-07-11T02:01:18.902Z,13.45
2018-07-11T02:02:18.938Z,13.48
2018-07-11T02:03:18.876Z,13.42
2018-07-11T02:04:19.798Z,13.42
2018-07-11T02:05:18.838Z,13.45
2018-07-11T02:06:18.827Z,13.48
2018-07-11T02:07:18.880Z,13.44
2018-07-11T02:08:18.805Z,13.55
2018-07-11T02:09:18.794Z,13.39
2018-07-11T02:10:18.788Z,13.54
2018-07-11T02:11:18.777Z,13.51
2018-07-11T02:12:18.837Z,13.46
2018-07-11T02:13:18.755Z,13.51
2018-07-11T02:14:18.744Z,13.55
2018-07-11T02:15:18.731Z,13.52
2018-07-11T02:16:18.723Z,13.60
2018-07-11T02:17:18.774Z,13.57
2018-07-11T02:18:18.700Z,13.63
2018-07-11T02:19:18.692Z,13.57
2018-07-11T02:20:18.678Z,13.57
2018-07-11T02:21:18.667Z,13.62
2018-07-11T02:22:18.725Z,13.60
2018-07-11T02:23:18.645Z,13.60
2018-07-11T02:24:18.639Z,13.62
2018-07-11T02:25:19.288Z,13.67
2018-07-11T02:26:18.624Z,13.64
2018-07-11T02:27:18.680Z,13.73
2018-07-11T02:28:18.595Z,13.66
2018-07-11T02:29:18.587Z,13.69
2018-07-11T02:30:18.573Z,13.67
2018-07-11T02:31:18.563Z,13.66
2018-07-11T02:32:18.628Z,13.71
2018-07-11T02:33:18.537Z,13.73
2018-07-11T02:34:18.527Z,13.71
2018-07-11T02:35:18.518Z,13.67
2018-07-11T02:36:18.507Z,13.73
2018-07-11T02:37:18.560Z,13.78
2018-07-11T02:38:18.490Z,13.75
2018-07-11T02:39:18.477Z,13.71
2018-07-11T02:40:18.479Z,13.81
2018-07-11T02:41:18.452Z,13.77
2018-07-11T02:42:18.511Z,13.77
2018-07-11T02:43:18.433Z,13.69
2018-07-11T02:44:18.418Z,13.67
2018-07-11T02:45:18.413Z,13.70
2018-07-11T02:46:19.285Z,13.69
2018-07-11T02:47:18.460Z,13.67
2018-07-11T02:48:18.377Z,13.66
2018-07-11T02:49:18.371Z,13.59
2018-07-11T02:50:18.365Z,13.57
2018-07-11T02:51:18.346Z,13.57
2018-07-11T02:52:18.399Z,13.54
2018-07-11T02:53:18.325Z,13.52
2018-07-11T02:54:18.313Z,13.55
2018-07-11T02:55:18.312Z,13.41
2018-07-11T02:56:18.295Z,13.42
2018-07-11T02:57:18.349Z,13.45
2018-07-11T02:58:18.277Z,13.33
2018-07-11T02:59:18.256Z,13.38
2018-07-11T03:00:18.251Z,13.32
2018-07-11T03:01:18.237Z,13.32
2018-07-11T03:02:18.296Z,13.32
2018-07-11T03:03:18.221Z,13.33
2018-07-11T03:04:18.215Z,13.36
2018-07-11T03:05:18.198Z,13.22
2018-07-11T03:06:18.185Z,13.23
2018-07-11T03:07:18.357Z,13.22
2018-07-11T03:08:18.177Z,13.25
2018-07-11T03:09:18.158Z,13.20
2018-07-11T03:10:18.140Z,13.17
2018-07-11T03:11:18.128Z,13.17
2018-07-11T03:12:18.202Z,13.04
2018-07-11T03:13:18.109Z,13.08
2018-07-11T03:14:18.109Z,13.07
2018-07-11T03:15:18.084Z,13.07
2018-07-11T03:16:18.075Z,13.11
2018-07-11T03:17:18.128Z,13.05
2018-07-11T03:18:18.063Z,13.11
2018-07-11T03:19:18.045Z,13.10
2018-07-11T03:20:18.036Z,13.05
2018-07-11T03:21:18.020Z,13.05
2018-07-11T03:22:18.078Z,13.08
2018-07-11T03:23:18.000Z,13.03
2018-07-11T03:24:17.989Z,13.01
2018-07-11T03:25:17.978Z,13.03
2018-07-11T03:26:17.967Z,13.03
2018-07-11T03:27:18.030Z,13.03
2018-07-11T03:28:18.783Z,13.05
2018-07-11T03:29:17.937Z,12.97
2018-07-11T03:30:17.934Z,13.00
2018-07-11T03:31:18.779Z,12.95
2018-07-11T03:32:17.901Z,12.95
2018-07-11T03:33:17.956Z,13.03
2018-07-11T03:34:17.883Z,13.01
2018-07-11T03:35:17.881Z,13.01
2018-07-11T03:36:17.870Z,13.05
2018-07-11T03:37:17.849Z,13.12
2018-07-11T03:38:17.898Z,13.04
2018-07-11T03:39:17.826Z,13.05
2018-07-11T03:40:17.818Z,13.07
2018-07-11T03:41:17.811Z,13.04
2018-07-11T03:42:17.798Z,13.05
2018-07-11T03:43:17.854Z,13.07
2018-07-11T03:44:17.774Z,13.10
2018-07-11T03:45:17.768Z,13.07
2018-07-11T03:46:17.751Z,13.03
2018-07-11T03:47:17.745Z,13.07
2018-07-11T03:48:17.796Z,13.01
2018-07-11T03:49:18.289Z,13.03
2018-07-11T03:50:17.718Z,13.05
2018-07-11T03:51:17.702Z,13.00
2018-07-11T03:52:17.688Z,12.96
2018-07-11T03:53:17.751Z,12.92
2018-07-11T03:54:17.670Z,13.00
2018-07-11T03:55:17.658Z,12.95
2018-07-11T03:56:17.644Z,12.95
2018-07-11T03:57:17.633Z,12.93
2018-07-11T03:58:17.691Z,12.90
2018-07-11T03:59:17.611Z,12.87
2018-07-11T04:00:17.602Z,12.87
2018-07-11T04:01:17.591Z,12.95
2018-07-11T04:02:17.583Z,12.89
2018-07-11T04:03:17.638Z,12.92
2018-07-11T04:04:17.563Z,12.86
2018-07-11T04:05:17.548Z,12.89
2018-07-11T04:06:17.536Z,12.86
2018-07-11T04:07:17.530Z,12.90
2018-07-11T04:08:17.593Z,12.92
2018-07-11T04:09:17.508Z,12.90
2018-07-11T04:10:18.271Z,12.92
2018-07-11T04:11:17.486Z,12.87
2018-07-11T04:12:17.472Z,12.92
2018-07-11T04:13:17.534Z,12.93
2018-07-11T04:14:17.453Z,12.87
2018-07-11T04:15:17.441Z,12.97
2018-07-11T04:16:17.431Z,12.89
2018-07-11T04:17:17.420Z,12.93
2018-07-11T04:18:17.470Z,12.90
2018-07-11T04:19:17.401Z,12.93
2018-07-11T04:20:17.387Z,12.97
2018-07-11T04:21:17.376Z,12.95
2018-07-11T04:22:17.364Z,13.00
2018-07-11T04:23:17.422Z,12.97
2018-07-11T04:24:17.340Z,13.08
2018-07-11T04:25:17.340Z,13.03
2018-07-11T04:26:17.318Z,13.08
2018-07-11T04:27:17.312Z,12.97
2018-07-11T04:28:17.367Z,13.07
2018-07-11T04:29:17.290Z,13.08
2018-07-11T04:30:17.279Z,13.08
2018-07-11T04:31:17.785Z,13.04
2018-07-11T04:32:17.260Z,13.05
2018-07-11T04:33:17.325Z,13.04
2018-07-11T04:34:17.235Z,13.03
2018-07-11T04:35:17.253Z,13.07
2018-07-11T04:36:17.221Z,13.05
2018-07-11T04:37:17.203Z,13.08
2018-07-11T04:38:17.265Z,13.07
2018-07-11T04:39:17.188Z,13.11
2018-07-11T04:40:17.172Z,13.08
2018-07-11T04:41:17.160Z,13.10
2018-07-11T04:42:17.147Z,13.20
2018-07-11T04:43:17.215Z,13.19
2018-07-11T04:44:17.130Z,13.28
2018-07-11T04:45:17.120Z,13.25
2018-07-11T04:46:17.108Z,13.25
2018-07-11T04:47:17.097Z,13.22
2018-07-11T04:48:17.144Z,13.23
2018-07-11T04:49:17.067Z,13.20
2018-07-11T04:50:17.069Z,13.20
2018-07-11T04:51:17.053Z,13.29
2018-07-11T04:52:18.772Z,13.36
2018-07-11T04:53:17.099Z,13.36
2018-07-11T04:54:17.017Z,13.36
2018-07-11T04:55:17.011Z,13.32
2018-07-11T04:56:16.997Z,13.32
2018-07-11T04:57:25.257Z,13.42
2018-07-11T04:58:25.230Z,13.39
2018-07-11T04:59:25.169Z,13.45
2018-07-11T05:00:25.190Z,13.41
2018-07-11T05:01:16.984Z,13.51
2018-07-11T05:02:16.949Z,13.54
2018-07-11T05:03:16.995Z,13.66
2018-07-11T05:04:25.123Z,13.78
2018-07-11T05:05:25.034Z,13.81
2018-07-11T05:06:16.892Z,13.91
2018-07-11T05:07:25.040Z,13.85
2018-07-11T05:08:25.514Z,13.79
2018-07-11T05:09:24.384Z,13.85
2018-07-11T05:10:25.511Z,13.95
2018-07-11T05:11:16.905Z,13.88
2018-07-11T05:12:16.826Z,13.92
2018-07-11T05:13:16.818Z,14.00
2018-07-11T05:14:16.865Z,14.02
2018-07-11T05:15:16.795Z,14.02
2018-07-11T05:16:16.844Z,13.97
2018-07-11T05:17:16.794Z,14.00
2018-07-11T05:18:16.757Z,14.06
2018-07-11T05:19:16.815Z,14.03
2018-07-11T05:20:16.746Z,14.00
2018-07-11T05:21:16.727Z,14.00
2018-07-11T05:22:16.721Z,14.02
2018-07-11T05:23:16.712Z,14.00
2018-07-11T05:24:16.763Z,14.00
2018-07-11T05:25:16.685Z,14.12
2018-07-11T05:26:17.626Z,14.20
2018-07-11T05:27:16.668Z,14.15
2018-07-11T05:28:16.650Z,14.25
2018-07-11T05:29:16.710Z,14.37
2018-07-11T05:30:16.640Z,14.28
2018-07-11T05:31:16.622Z,14.39
2018-07-11T05:32:16.608Z,14.39
2018-07-11T05:33:16.602Z,14.28
2018-07-11T05:34:16.650Z,14.33
2018-07-11T05:35:16.577Z,14.35
2018-07-11T05:36:16.625Z,14.37
2018-07-11T05:37:16.559Z,14.35
2018-07-11T05:38:16.553Z,14.40
2018-07-11T05:39:16.600Z,14.27
2018-07-11T05:40:16.525Z,14.42
2018-07-11T05:41:16.524Z,14.42
2018-07-11T05:42:16.509Z,14.45
2018-07-11T05:43:16.498Z,14.39
2018-07-11T05:44:16.545Z,14.46
2018-07-11T05:45:16.475Z,14.42
2018-07-11T05:46:16.459Z,14.45
2018-07-11T05:47:17.124Z,14.43
2018-07-11T05:48:16.463Z,14.46
2018-07-11T05:49:16.494Z,14.50
2018-07-11T05:50:16.414Z,14.40
2018-07-11T05:51:16.407Z,14.42
2018-07-11T05:52:16.394Z,14.42
2018-07-11T05:53:16.395Z,14.52
2018-07-11T05:54:16.439Z,14.52
2018-07-11T05:55:16.362Z,14.46
2018-07-11T05:56:16.354Z,14.50
2018-07-11T05:57:16.345Z,14.61
2018-07-11T05:58:16.332Z,14.58
2018-07-11T05:59:16.384Z,14.52
2018-07-11T06:00:16.312Z,14.50
2018-07-11T06:01:16.317Z,14.55
2018-07-11T06:02:16.290Z,14.54
2018-07-11T06:03:16.297Z,14.57
2018-07-11T06:04:16.342Z,14.54
2018-07-11T06:05:16.262Z,14.50
2018-07-11T06:06:16.254Z,14.60
2018-07-11T06:07:16.235Z,14.57
2018-07-11T06:08:17.122Z,14.60
2018-07-11T06:09:16.279Z,14.58
2018-07-11T06:10:16.202Z,14.62
2018-07-11T06:11:16.193Z,14.61
2018-07-11T06:12:16.190Z,14.62
2018-07-11T06:13:16.219Z,14.64
2018-07-11T06:14:16.223Z,14.70
2018-07-11T06:15:16.151Z,14.72
2018-07-11T06:16:16.158Z,14.73
2018-07-11T06:17:16.135Z,14.80
2018-07-11T06:18:16.121Z,14.78
2018-07-11T06:19:16.189Z,14.86
2018-07-11T06:20:16.102Z,14.89
2018-07-11T06:21:16.099Z,14.99
2018-07-11T06:22:16.077Z,14.96
2018-07-11T06:23:16.066Z,15.06
2018-07-11T06:24:16.122Z,15.06
2018-07-11T06:25:16.051Z,15.07
2018-07-11T06:26:16.033Z,15.10
2018-07-11T06:27:16.024Z,15.13
2018-07-11T06:28:16.014Z,15.17
2018-07-11T06:29:16.195Z,15.27
2018-07-11T06:30:15.991Z,15.14
2018-07-11T06:31:15.986Z,15.20
2018-07-11T06:32:15.969Z,15.27
2018-07-11T06:33:15.952Z,15.27
2018-07-11T06:34:16.026Z,15.36
2018-07-11T06:35:15.933Z,15.46
2018-07-11T06:36:15.933Z,15.34
2018-07-11T06:37:15.912Z,15.41
2018-07-11T06:38:15.907Z,15.39
2018-07-11T06:39:15.989Z,15.41
2018-07-11T06:40:15.880Z,15.39
2018-07-11T06:41:15.867Z,15.47
2018-07-11T06:42:15.860Z,15.43
2018-07-11T06:43:15.848Z,15.50
2018-07-11T06:44:15.901Z,15.51
2018-07-11T06:45:15.829Z,15.62
2018-07-11T06:46:15.818Z,15.74
2018-07-11T06:47:15.804Z,15.74
2018-07-11T06:48:15.798Z,15.68
2018-07-11T06:49:15.785Z,15.80
2018-07-11T06:50:16.201Z,15.86
2018-07-11T06:51:15.762Z,15.87
2018-07-11T06:52:15.757Z,15.86
2018-07-11T06:53:16.620Z,15.90
2018-07-11T06:54:15.734Z,15.87
2018-07-11T06:55:15.784Z,15.94
2018-07-11T06:56:15.707Z,15.90
2018-07-11T06:57:15.699Z,16.05
2018-07-11T06:58:15.687Z,16.20
2018-07-11T06:59:15.676Z,16.33
2018-07-11T07:00:15.734Z,16.71
2018-07-11T07:01:15.652Z,17.06
2018-07-11T07:02:15.643Z,17.46
2018-07-11T07:03:15.638Z,17.54
2018-07-11T07:04:15.629Z,17.79
2018-07-11T07:05:15.680Z,17.93
2018-07-11T07:06:15.610Z,18.03
2018-07-11T07:07:15.589Z,18.15
2018-07-11T07:08:15.577Z,18.25
2018-07-11T07:09:15.566Z,18.33
2018-07-11T07:10:15.640Z,18.41
2018-07-11T07:11:16.118Z,18.50
2018-07-11T07:12:15.536Z,18.67
2018-07-11T07:13:15.525Z,18.66
2018-07-11T07:14:15.514Z,18.67
2018-07-11T07:15:15.569Z,18.67
2018-07-11T07:16:15.497Z,18.70
2018-07-11T07:17:15.485Z,18.82
2018-07-11T07:18:15.485Z,18.72
2018-07-11T07:19:15.459Z,18.58
2018-07-11T07:20:15.514Z,18.84
2018-07-11T07:21:15.442Z,19.21
2018-07-11T07:22:15.439Z,19.59
2018-07-11T07:23:15.420Z,19.71
2018-07-11T07:24:15.411Z,20.01
2018-07-11T07:25:15.466Z,20.02
2018-07-11T07:26:15.389Z,20.28
2018-07-11T07:27:15.388Z,20.52
2018-07-11T07:28:15.367Z,20.61
2018-07-11T07:29:15.359Z,20.77
2018-07-11T07:30:15.427Z,21.04
2018-07-11T07:31:15.334Z,21.21
2018-07-11T07:32:16.126Z,21.27
2018-07-11T07:33:15.317Z,21.50
2018-07-11T07:34:15.309Z,21.71
2018-07-11T07:35:15.358Z,21.77
2018-07-11T07:36:15.287Z,22.07
2018-07-11T07:37:15.273Z,22.25
2018-07-11T07:38:15.267Z,22.45
2018-07-11T07:39:15.257Z,22.57
2018-07-11T07:40:15.317Z,22.64
2018-07-11T07:41:15.237Z,22.75
2018-07-11T07:42:15.228Z,22.75
2018-07-11T07:43:15.212Z,22.85
2018-07-11T07:44:15.203Z,23.00
2018-07-11T07:45:15.264Z,23.02
2018-07-11T07:46:15.184Z,23.10
2018-07-11T07:47:15.176Z,23.20
2018-07-11T07:48:15.165Z,22.79
2018-07-11T07:49:15.154Z,22.49
2018-07-11T07:50:15.208Z,22.17
2018-07-11T07:51:15.131Z,21.83
2018-07-11T07:52:15.120Z,21.56
2018-07-11T07:53:15.621Z,21.25
2018-07-11T07:54:15.100Z,21.03
2018-07-11T07:55:15.162Z,20.61
2018-07-11T07:56:15.082Z,20.73
2018-07-11T07:57:15.077Z,21.28
2018-07-11T07:58:15.075Z,21.69
2018-07-11T07:59:15.051Z,22.00
2018-07-11T08:00:15.106Z,22.25
2018-07-11T08:01:15.032Z,22.58
2018-07-11T08:02:15.021Z,22.91
2018-07-11T08:03:15.013Z,23.04
2018-07-11T08:04:15.001Z,23.22
2018-07-11T08:05:15.059Z,23.22
2018-07-11T08:06:14.987Z,23.25
2018-07-11T08:07:14.971Z,22.94
2018-07-11T08:08:14.959Z,22.90
2018-07-11T08:09:14.953Z,22.61
2018-07-11T08:10:15.041Z,22.24
2018-07-11T08:11:14.947Z,21.98
2018-07-11T08:12:16.735Z,21.82
2018-07-11T08:13:14.909Z,21.58
2018-07-11T08:14:16.622Z,21.67
2018-07-11T08:15:14.954Z,22.37
2018-07-11T08:16:14.879Z,22.97
2018-07-11T08:17:14.868Z,22.77
2018-07-11T08:18:14.865Z,22.54
2018-07-11T08:19:14.848Z,22.58
2018-07-11T08:20:14.910Z,22.42
2018-07-11T08:21:14.856Z,22.12
2018-07-11T08:22:14.818Z,21.99
2018-07-11T08:23:15.197Z,21.79
2018-07-11T08:24:14.817Z,21.79
2018-07-11T08:25:14.851Z,21.65
2018-07-11T08:26:15.137Z,21.59
2018-07-11T08:27:15.191Z,21.80
2018-07-11T08:28:15.162Z,22.54
2018-07-11T08:29:14.749Z,22.73
2018-07-11T08:30:15.351Z,22.39
2018-07-11T08:31:15.016Z,22.18
2018-07-11T08:32:14.881Z,22.09
2018-07-11T08:33:15.100Z,22.95
2018-07-11T08:34:15.013Z,23.15
2018-07-11T08:35:15.954Z,23.53
2018-07-11T08:36:14.740Z,23.93
2018-07-11T08:37:14.960Z,24.43
2018-07-11T08:38:15.108Z,24.15
2018-07-11T08:39:15.094Z,23.75
2018-07-11T08:40:14.948Z,23.55
2018-07-11T08:41:14.792Z,24.28
2018-07-11T08:42:14.764Z,24.24
2018-07-11T08:43:14.772Z,23.79
2018-07-11T08:44:14.596Z,23.90
2018-07-11T08:45:14.593Z,24.34
2018-07-11T08:46:16.620Z,24.71
2018-07-11T08:47:22.097Z,25.28
2018-07-11T08:48:22.732Z,25.65
2018-07-11T08:49:23.601Z,25.95
2018-07-11T08:50:14.551Z,26.25
2018-07-11T08:51:14.596Z,26.51
2018-07-11T08:52:14.644Z,26.73
2018-07-11T08:53:14.510Z,26.85
2018-07-11T08:54:14.899Z,26.80
2018-07-11T08:55:22.827Z,26.92
2018-07-11T08:56:23.204Z,27.02
2018-07-11T08:57:14.824Z,27.18
2018-07-11T08:58:14.465Z,27.34
2018-07-11T08:59:14.465Z,27.37
2018-07-11T09:00:14.483Z,27.44
2018-07-11T09:01:14.496Z,27.50
2018-07-11T09:02:14.427Z,27.41
2018-07-11T09:03:14.419Z,27.49
2018-07-11T09:04:14.413Z,27.65
2018-07-11T09:05:14.399Z,27.75
2018-07-11T09:06:14.457Z,27.90
2018-07-11T09:07:14.382Z,27.90
2018-07-11T09:08:14.371Z,27.90
2018-07-11T09:09:14.365Z,28.02
2018-07-11T09:10:14.354Z,28.07
2018-07-11T09:11:14.417Z,28.12
2018-07-11T09:12:14.337Z,28.22
2018-07-11T09:13:14.327Z,28.46
2018-07-11T09:14:14.323Z,28.52
2018-07-11T09:15:15.290Z,28.74
2018-07-11T09:16:14.370Z,28.89
2018-07-11T09:17:15.289Z,28.95
2018-07-11T09:18:14.287Z,29.14
2018-07-11T09:19:14.282Z,29.24
2018-07-11T09:20:14.268Z,29.39
2018-07-11T09:21:14.323Z,29.16
2018-07-11T09:22:14.251Z,29.33
2018-07-11T09:23:14.248Z,29.48
2018-07-11T09:24:14.291Z,29.67
2018-07-11T09:25:14.228Z,29.73
2018-07-11T09:26:14.280Z,29.43
2018-07-11T09:27:14.208Z,29.19
2018-07-11T09:28:14.203Z,28.33
2018-07-11T09:29:14.193Z,27.75
2018-07-11T09:30:14.184Z,27.18
2018-07-11T09:31:14.244Z,26.69
2018-07-11T09:32:14.170Z,26.20
2018-07-11T09:33:14.184Z,26.66
2018-07-11T09:34:14.152Z,26.63
2018-07-11T09:35:14.139Z,27.34
2018-07-11T09:36:14.194Z,27.90
2018-07-11T09:37:14.125Z,28.15
2018-07-11T09:38:14.789Z,28.36
2018-07-11T09:39:14.103Z,28.51
2018-07-11T09:40:14.097Z,28.88
2018-07-11T09:41:14.154Z,29.06
2018-07-11T09:42:14.084Z,29.26
2018-07-11T09:43:14.071Z,29.31
2018-07-11T09:44:14.066Z,29.52
2018-07-11T09:45:14.052Z,29.80
2018-07-11T09:46:14.128Z,30.05
2018-07-11T09:47:14.036Z,30.29
2018-07-11T09:48:14.032Z,30.65
2018-07-11T09:49:14.016Z,30.84
2018-07-11T09:50:14.007Z,31.07
2018-07-11T09:51:14.081Z,30.97
2018-07-11T09:52:14.051Z,31.01
2018-07-11T09:53:13.982Z,31.01
2018-07-11T09:54:13.975Z,31.02
2018-07-11T09:55:13.973Z,31.17
2018-07-11T09:56:14.020Z,31.39
2018-07-11T09:57:13.955Z,31.36
2018-07-11T09:58:13.943Z,31.44
2018-07-11T09:59:14.788Z,31.61
2018-07-11T10:00:13.928Z,31.85
2018-07-11T10:01:13.982Z,31.95
2018-07-11T10:02:13.930Z,31.61
2018-07-11T10:03:13.922Z,31.04
2018-07-11T10:04:13.897Z,31.01
2018-07-11T10:05:13.920Z,30.20
2018-07-11T10:06:13.948Z,29.45
2018-07-11T10:07:13.867Z,28.86
2018-07-11T10:08:13.864Z,28.51
2018-07-11T10:09:13.849Z,28.92
2018-07-11T10:10:13.843Z,29.98
2018-07-11T10:11:13.897Z,30.55
2018-07-11T10:12:13.826Z,30.00
2018-07-11T10:13:13.817Z,29.34
2018-07-11T10:14:13.808Z,29.79
2018-07-11T10:15:13.821Z,29.95
2018-07-11T10:16:13.789Z,29.61
2018-07-11T10:17:13.844Z,29.51
2018-07-11T10:18:13.775Z,29.41
2018-07-11T10:19:13.764Z,29.31
2018-07-11T10:20:14.289Z,29.33
2018-07-11T10:21:13.747Z,29.48
2018-07-11T10:22:13.824Z,29.30
2018-07-11T10:23:13.753Z,29.79
2018-07-11T10:24:13.719Z,30.98
2018-07-11T10:25:13.714Z,31.96
2018-07-11T10:26:13.700Z,31.95
2018-07-11T10:27:13.757Z,31.47
2018-07-11T10:28:13.686Z,31.58
2018-07-11T10:29:13.675Z,31.99
2018-07-11T10:30:13.667Z,32.06
2018-07-11T10:31:13.663Z,32.37
2018-07-11T10:32:13.715Z,32.69
2018-07-11T10:33:13.638Z,32.41
2018-07-11T10:34:13.630Z,32.01
2018-07-11T10:35:13.624Z,31.96
2018-07-11T10:36:13.680Z,32.14
2018-07-11T10:37:13.671Z,32.30
2018-07-11T10:38:13.599Z,32.18
2018-07-11T10:39:13.628Z,32.04
2018-07-11T10:40:13.580Z,31.70
2018-07-11T10:41:14.287Z,31.29
2018-07-11T10:42:13.632Z,30.86
2018-07-11T10:43:13.563Z,30.45
2018-07-11T10:44:13.546Z,30.19
2018-07-11T10:45:13.533Z,30.00
2018-07-11T10:46:13.535Z,29.95
2018-07-11T10:47:13.589Z,29.68
2018-07-11T10:48:13.510Z,29.37
2018-07-11T10:49:21.616Z,29.24
2018-07-11T10:50:21.628Z,29.08
2018-07-11T10:51:13.487Z,29.19
2018-07-11T10:52:13.543Z,29.09
2018-07-11T10:53:13.463Z,29.16
2018-07-11T10:54:13.451Z,29.11
2018-07-11T10:55:13.449Z,29.21
2018-07-11T10:56:13.435Z,29.12
2018-07-11T10:57:13.492Z,29.14
2018-07-11T10:58:13.413Z,29.12
2018-07-11T10:59:13.408Z,29.14
2018-07-11T11:00:35.963Z,29.31
2018-07-11T11:01:13.400Z,29.27
2018-07-11T11:02:13.443Z,29.46
2018-07-11T11:03:13.366Z,29.85
2018-07-11T11:04:13.354Z,30.01
2018-07-11T11:05:13.346Z,30.31
2018-07-11T11:06:13.362Z,30.53
2018-07-11T11:07:13.396Z,30.88
2018-07-11T11:08:13.321Z,31.46
2018-07-11T11:09:13.310Z,32.38
2018-07-11T11:10:13.302Z,33.31
2018-07-11T11:11:13.855Z,33.88
2018-07-11T11:12:13.388Z,34.30
2018-07-11T11:13:13.276Z,34.35
2018-07-11T11:14:13.272Z,34.42
2018-07-11T11:15:13.258Z,33.35
2018-07-11T11:16:13.249Z,33.90
2018-07-11T11:17:13.309Z,34.27
2018-07-11T11:18:13.412Z,34.19
2018-07-11T11:19:13.229Z,33.86
2018-07-11T11:20:13.215Z,33.68
2018-07-11T11:21:13.218Z,33.39
2018-07-11T11:22:13.261Z,33.44
2018-07-11T11:23:13.190Z,33.18
2018-07-11T11:24:13.181Z,33.32
2018-07-11T11:25:13.171Z,33.59
2018-07-11T11:26:13.163Z,33.59
2018-07-11T11:27:13.233Z,33.00
2018-07-11T11:28:13.147Z,32.44
2018-07-11T11:29:13.142Z,31.89
2018-07-11T11:30:13.128Z,31.65
2018-07-11T11:31:13.120Z,31.28
2018-07-11T11:32:13.425Z,31.02
2018-07-11T11:33:13.101Z,31.01
2018-07-11T11:34:13.096Z,30.86
2018-07-11T11:35:13.084Z,30.84
2018-07-11T11:36:13.073Z,30.84
2018-07-11T11:37:13.128Z,31.04
2018-07-11T11:38:13.056Z,31.36
2018-07-11T11:39:13.044Z,31.75
2018-07-11T11:40:13.036Z,32.21
2018-07-11T11:41:13.031Z,32.62
2018-07-11T11:42:13.446Z,32.56
2018-07-11T11:43:13.018Z,32.28
2018-07-11T11:44:13.000Z,31.99
2018-07-11T11:45:12.992Z,31.29
2018-07-11T11:46:12.981Z,30.99
2018-07-11T11:47:13.038Z,30.70
2018-07-11T11:48:12.964Z,30.49
2018-07-11T11:49:12.958Z,30.26
2018-07-11T11:50:12.947Z,30.02
2018-07-11T11:51:12.939Z,29.80
2018-07-11T11:52:12.986Z,29.55
2018-07-11T11:53:13.852Z,29.33
2018-07-11T11:54:12.903Z,29.14
2018-07-11T11:55:12.892Z,28.83
2018-07-11T11:56:12.889Z,28.55
2018-07-11T11:57:12.876Z,28.22
2018-07-11T11:58:12.928Z,28.07
2018-07-11T11:59:12.855Z,27.87
2018-07-11T12:00:12.859Z,27.69
2018-07-11T12:01:12.834Z,27.57
2018-07-11T12:02:12.823Z,27.41
2018-07-11T12:03:12.884Z,27.60
2018-07-11T12:04:12.803Z,27.88
2018-07-11T12:05:12.795Z,28.54
2018-07-11T12:06:12.789Z,28.93
2018-07-11T12:07:12.838Z,29.23
2018-07-11T12:08:12.833Z,29.27
2018-07-11T12:09:12.753Z,29.43
2018-07-11T12:10:12.745Z,29.43
2018-07-11T12:11:12.745Z,29.51
2018-07-11T12:12:12.726Z,29.80
2018-07-11T12:13:12.783Z,30.57
2018-07-11T12:14:15.352Z,31.16
2018-07-11T12:15:12.695Z,30.53
2018-07-11T12:16:12.695Z,30.17
2018-07-11T12:17:12.678Z,29.83
2018-07-11T12:18:12.736Z,29.51
2018-07-11T12:19:12.658Z,29.48
2018-07-11T12:20:12.656Z,29.45
2018-07-11T12:21:12.684Z,29.43
2018-07-11T12:22:12.628Z,30.01
2018-07-11T12:23:12.689Z,30.51
2018-07-11T12:24:12.619Z,31.48
2018-07-11T12:25:12.600Z,32.35
2018-07-11T12:26:12.592Z,32.52
2018-07-11T12:27:12.578Z,32.19
2018-07-11T12:28:12.652Z,32.01
2018-07-11T12:29:12.559Z,32.19
2018-07-11T12:30:20.747Z,31.76
2018-07-11T12:31:20.632Z,31.38
2018-07-11T12:32:20.764Z,31.21
2018-07-11T12:33:12.586Z,31.06
2018-07-11T12:34:12.514Z,30.73
2018-07-11T12:35:12.506Z,30.55
2018-07-11T12:36:12.503Z,30.16
2018-07-11T12:37:20.582Z,30.00
2018-07-11T12:38:12.544Z,29.83
2018-07-11T12:39:12.464Z,29.71
2018-07-11T12:40:12.457Z,29.55
2018-07-11T12:41:21.518Z,29.43
2018-07-11T12:42:12.458Z,29.21
2018-07-11T12:43:12.502Z,29.12
2018-07-11T12:44:12.415Z,28.85
2018-07-11T12:45:12.428Z,28.73
2018-07-11T12:46:12.413Z,28.49
2018-07-11T12:47:12.386Z,28.46
2018-07-11T12:48:12.450Z,28.54
2018-07-11T12:49:12.369Z,28.54
2018-07-11T12:50:12.358Z,28.52
2018-07-11T12:51:12.344Z,28.52
2018-07-11T12:52:12.336Z,28.27